Time,TemperatureF,DewpointF,PressureIn,WindDirection,WindDirectionDegrees,WindSpeedMPH,WindSpeedGustMPH,Humidity,HourlyPrecipIn,Conditions,Clouds,dailyrainin,SoftwareType,DateUTC
2013-09-24 00:04:00,64.6,50.4,29.74,SW,222,0.0,1.0,60,0.00,CLR,,0.00,WeatherDisplay:10.37,2013-09-23 14:04:00,
2013-09-24 00:09:00,64.6,50.8,29.74,SSW,202,0.0,0.0,61,0.00,CLR,,0.00,WeatherDisplay:10.37,2013-09-23 14:09:00,
2013-09-24 00:14:00,64.6,50.8,29.74,SSE,164,0.0,0.0,61,0.00,CLR,,0.00,WeatherDisplay:10.37,2013-09-23 14:14:00,
2013-09-24 00:19:00,64.6,50.4,29.75,WNW,286,0.0,1.0,60,0.00,CLR,,0.00,WeatherDisplay:10.37,2013-09-23 14:19:00,
2013-09-24 00:24:00,64.6,50.8,29.75,ESE,122,0.0,0.0,61,0.00,CLR,,0.00,WeatherDisplay:10.37,2013-09-23 14:24:00,
2013-09-24 00:29:00,64.6,50.8,29.75,ESE,104,0.0,0.0,61,0.00,CLR,,0.00,WeatherDisplay:10.37,2013-09-23 14:29:00,
2013-09-24 00:34:00,64.6,50.8,29.75,SE,140,0.0,1.0,61,0.00,CLR,,0.00,WeatherDisplay:10.37,2013-09-23 14:34:00,
2013-09-24 00:39:00,64.5,50.7,29.75,South,175,0.0,0.0,61,0.00,CLR,,0.00,WeatherDisplay:10.37,2013-09-23 14:39:00,
2013-09-24 00:44:00,64.2,50.9,29.75,South,172,0.0,1.0,62,0.00,CLR,,0.00,WeatherDisplay:10.37,2013-09-23 14:44:00,
2013-09-24 00:54:00,64.2,50.5,29.75,SE,134,0.0,6.0,61,0.00,CLR,,0.00,WeatherDisplay:10.37,2013-09-23 14:54:00,
2013-09-24 00:59:00,64.7,49.1,29.74,WNW,297,2.0,5.0,57,0.00,CLR,,0.00,WeatherDisplay:10.37,2013-09-23 14:59:00,
2013-09-24 01:04:00,65.6,46.4,29.74,NNW,331,2.0,5.0,50,0.00,CLR,,0.00,WeatherDisplay:10.37,2013-09-23 15:04:00,
2013-09-24 01:09:00,66.6,45.2,29.74,NNW,330,1.0,6.0,46,0.00,CLR,,0.00,WeatherDisplay:10.37,2013-09-23 15:09:00,
2013-09-24 01:14:00,67.3,44.6,29.73,NW,322,1.0,4.0,44,0.00,CLR,,0.00,WeatherDisplay:10.37,2013-09-23 15:14:00,
2013-09-24 01:19:00,67.7,44.4,29.73,NW,319,1.0,5.0,43,0.00,CLR,,0.00,WeatherDisplay:10.37,2013-09-23 15:19:00,
2013-09-24 01:24:00,67.8,43.9,29.73,NW,323,1.0,3.0,42,0.00,CLR,,0.00,WeatherDisplay:10.37,2013-09-23 15:24:00,
2013-09-24 01:29:00,68.2,43.6,29.73,NW,317,0.0,3.0,41,0.00,CLR,,0.00,WeatherDisplay:10.37,2013-09-23 15:29:00,
2013-09-24 01:34:00,68.2,43.6,29.73,NW,323,2.0,3.0,41,0.00,CLR,,0.00,WeatherDisplay:10.37,2013-09-23 15:34:00,
2013-09-24 01:39:00,68.4,43.1,29.73,NNW,331,1.0,4.0,40,0.00,CLR,,0.00,WeatherDisplay:10.37,2013-09-23 15:39:00,
2013-09-24 01:44:00,68.5,43.2,29.73,NNW,335,2.0,6.0,40,0.00,CLR,,0.00,WeatherDisplay:10.37,2013-09-23 15:44:00,
2013-09-24 01:49:00,68.7,42.1,29.73,NNW,337,1.0,6.0,38,0.00,CLR,,0.00,WeatherDisplay:10.37,2013-09-23 15:49:00,
2013-09-24 01:54:00,68.7,42.1,29.73,NNW,335,1.0,3.0,38,0.00,CLR,,0.00,WeatherDisplay:10.37,2013-09-23 15:54:00,
2013-09-24 01:59:00,68.9,41.5,29.73,North,351,2.0,3.0,37,0.00,CLR,,0.00,WeatherDisplay:10.37,2013-09-23 15:59:00,
2013-09-24 02:04:00,69.1,41.7,29.72,North,351,1.0,3.0,37,0.00,CLR,,0.00,WeatherDisplay:10.37,2013-09-23 16:04:00,
2013-09-24 02:09:00,68.7,42.1,29.72,NNW,329,0.0,2.0,38,0.00,CLR,,0.00,WeatherDisplay:10.37,2013-09-23 16:09:00,
2013-09-24 02:14:00,68.5,41.9,29.72,WSW,252,0.0,1.0,38,0.00,CLR,,0.00,WeatherDisplay:10.37,2013-09-23 16:14:00,
2013-09-24 02:19:00,68.4,41.8,29.72,NNE,25,1.0,3.0,38,0.00,CLR,,0.00,WeatherDisplay:10.37,2013-09-23 16:19:00,
2013-09-24 02:24:00,68.2,42.3,29.72,NNE,19,0.0,2.0,39,0.00,CLR,,0.00,WeatherDisplay:10.37,2013-09-23 16:24:00,
2013-09-24 02:29:00,67.8,42.6,29.71,NNE,29,0.0,1.0,40,0.00,CLR,,0.00,WeatherDisplay:10.37,2013-09-23 16:29:00,
2013-09-24 02:34:00,67.6,43.1,29.71,ESE,112,0.0,0.0,41,0.00,CLR,,0.00,WeatherDisplay:10.37,2013-09-23 16:34:00,
2013-09-24 02:39:00,67.3,43.4,29.71,East,89,0.0,1.0,42,0.00,CLR,,0.00,WeatherDisplay:10.37,2013-09-23 16:39:00,
2013-09-24 02:49:00,66.7,43.5,29.70,East,101,0.0,0.0,43,0.00,CLR,,0.00,WeatherDisplay:10.37,2013-09-23 16:49:00,
2013-09-24 02:54:00,66.6,44.0,29.70,East,98,0.0,1.0,44,0.00,CLR,,0.00,WeatherDisplay:10.37,2013-09-23 16:54:00,
2013-09-24 02:59:00,66.4,44.4,29.69,East,99,0.0,1.0,45,0.00,CLR,,0.00,WeatherDisplay:10.37,2013-09-23 16:59:00,
2013-09-24 03:04:00,66.2,44.8,29.70,SSE,154,0.0,1.0,46,0.00,CLR,,0.00,WeatherDisplay:10.37,2013-09-23 17:04:00,
2013-09-24 03:09:00,66.0,46.3,29.69,SE,124,0.0,1.0,49,0.00,CLR,,0.00,WeatherDisplay:10.37,2013-09-23 17:09:00,
2013-09-24 03:14:00,65.7,47.1,29.69,ESE,111,0.0,0.0,51,0.00,CLR,,0.00,WeatherDisplay:10.37,2013-09-23 17:14:00,
2013-09-24 03:19:00,65.5,46.3,29.69,East,88,0.0,1.0,50,0.00,CLR,,0.00,WeatherDisplay:10.37,2013-09-23 17:19:00,
2013-09-24 03:24:00,65.3,46.2,29.69,ENE,69,0.0,0.0,50,0.00,CLR,,0.00,WeatherDisplay:10.37,2013-09-23 17:24:00,
2013-09-24 03:29:00,65.4,45.7,29.69,ENE,58,0.0,2.0,49,0.00,CLR,,0.00,WeatherDisplay:10.37,2013-09-23 17:29:00,
2013-09-24 03:34:00,65.5,45.8,29.69,ENE,60,0.0,2.0,49,0.00,CLR,,0.00,WeatherDisplay:10.37,2013-09-23 17:34:00,
2013-09-24 03:39:00,65.5,45.3,29.68,NNE,33,0.0,1.0,48,0.00,CLR,,0.00,WeatherDisplay:10.37,2013-09-23 17:39:00,
2013-09-24 03:44:00,65.3,45.1,29.68,NNE,26,1.0,2.0,48,0.00,CLR,,0.00,WeatherDisplay:10.37,2013-09-23 17:44:00,
2013-09-24 03:49:00,65.1,44.4,29.68,NNE,26,1.0,3.0,47,0.00,CLR,,0.00,WeatherDisplay:10.37,2013-09-23 17:49:00,
2013-09-24 03:54:00,65.1,43.8,29.68,NNE,22,1.0,3.0,46,0.00,CLR,,0.00,WeatherDisplay:10.37,2013-09-23 17:54:00,
2013-09-24 03:59:00,65.1,43.8,29.68,NNE,23,1.0,3.0,46,0.00,CLR,,0.00,WeatherDisplay:10.37,2013-09-23 17:59:00,
2013-09-24 04:04:00,65.1,43.2,29.68,NNE,24,0.0,2.0,45,0.00,CLR,,0.00,WeatherDisplay:10.37,2013-09-23 18:04:00,
2013-09-24 04:09:00,65.1,43.2,29.68,NE,39,0.0,2.0,45,0.00,CLR,,0.00,WeatherDisplay:10.37,2013-09-23 18:09:00,
2013-09-24 04:14:00,65.1,43.8,29.68,ENE,67,0.0,1.0,46,0.00,CLR,,0.00,WeatherDisplay:10.37,2013-09-23 18:14:00,
2013-09-24 04:19:00,64.9,43.7,29.68,ENE,62,0.0,2.0,46,0.00,CLR,,0.00,WeatherDisplay:10.37,2013-09-23 18:19:00,
2013-09-24 04:24:00,64.9,43.7,29.68,NE,47,0.0,1.0,46,0.00,CLR,,0.00,WeatherDisplay:10.37,2013-09-23 18:24:00,
2013-09-24 04:29:00,64.9,43.7,29.68,ENE,68,0.0,1.0,46,0.00,CLR,,0.00,WeatherDisplay:10.37,2013-09-23 18:29:00,
2013-09-24 04:34:00,64.8,43.6,29.67,East,93,0.0,1.0,46,0.00,CLR,,0.00,WeatherDisplay:10.37,2013-09-23 18:34:00,
2013-09-24 04:39:00,64.6,43.3,29.68,SE,124,0.0,0.0,46,0.00,CLR,,0.00,WeatherDisplay:10.37,2013-09-23 18:39:00,
2013-09-24 04:44:00,64.6,43.9,29.68,East,99,0.0,1.0,47,0.00,CLR,,0.00,WeatherDisplay:10.37,2013-09-23 18:44:00,
2013-09-24 04:49:00,64.6,43.9,29.68,ENE,66,0.0,1.0,47,0.00,CLR,,0.00,WeatherDisplay:10.37,2013-09-23 18:49:00,
2013-09-24 04:54:00,64.3,43.6,29.68,ENE,72,0.0,0.0,47,0.00,CLR,,0.00,WeatherDisplay:10.37,2013-09-23 18:54:00,
2013-09-24 04:59:00,64.2,43.6,29.68,ENE,61,0.0,1.0,47,0.00,CLR,,0.00,WeatherDisplay:10.37,2013-09-23 18:59:00,
2013-09-24 05:04:00,64.2,44.1,29.68,NNE,19,2.0,2.0,48,0.00,CLR,,0.00,WeatherDisplay:10.37,2013-09-23 19:04:00,
2013-09-24 05:09:00,64.0,44.5,29.68,NNW,348,0.0,3.0,49,0.00,CLR,,0.00,WeatherDisplay:10.37,2013-09-23 19:09:00,
2013-09-24 05:14:00,63.8,44.8,29.68,WNW,290,0.0,0.0,50,0.00,CLR,,0.00,WeatherDisplay:10.37,2013-09-23 19:14:00,
2013-09-24 05:19:00,63.9,45.9,29.68,NNW,334,0.0,1.0,52,0.00,CLR,,0.00,WeatherDisplay:10.37,2013-09-23 19:19:00,
2013-09-24 05:24:00,63.7,45.7,29.68,NE,34,0.0,1.0,52,0.00,CLR,,0.00,WeatherDisplay:10.37,2013-09-23 19:24:00,
2013-09-24 05:29:00,63.5,45.6,29.68,NNE,32,0.0,0.0,52,0.00,CLR,,0.00,WeatherDisplay:10.37,2013-09-23 19:29:00,
2013-09-24 05:34:00,63.3,45.4,29.68,NE,55,0.0,1.0,52,0.00,CLR,,0.00,WeatherDisplay:10.37,2013-09-23 19:34:00,
2013-09-24 05:39:00,63.1,45.7,29.68,South,182,0.0,0.0,53,0.00,CLR,,0.00,WeatherDisplay:10.37,2013-09-23 19:39:00,
2013-09-24 05:44:00,63.1,45.7,29.68,WSW,245,0.0,0.0,53,0.00,CLR,,0.00,WeatherDisplay:10.37,2013-09-23 19:44:00,
2013-09-24 05:49:00,63.1,46.2,29.68,ENE,59,0.0,0.0,54,0.00,CLR,,0.00,WeatherDisplay:10.37,2013-09-23 19:49:00,
2013-09-24 05:54:00,63.0,46.0,29.68,NE,51,0.0,1.0,54,0.00,CLR,,0.00,WeatherDisplay:10.37,2013-09-23 19:54:00,
2013-09-24 05:59:00,62.8,45.9,29.68,North,349,0.0,1.0,54,0.00,CLR,,0.00,WeatherDisplay:10.37,2013-09-23 19:59:00,
2013-09-24 06:04:00,63.0,46.0,29.69,SW,221,0.0,0.0,54,0.00,CLR,,0.00,WeatherDisplay:10.37,2013-09-23 20:04:00,
2013-09-24 06:09:00,62.8,45.9,29.69,South,185,0.0,0.0,54,0.00,CLR,,0.00,WeatherDisplay:10.37,2013-09-23 20:09:00,
2013-09-24 06:14:00,63.0,46.5,29.69,ENE,73,0.0,0.0,55,0.00,CLR,,0.00,WeatherDisplay:10.37,2013-09-23 20:14:00,
2013-09-24 06:19:00,63.0,46.5,29.69,NE,44,0.0,2.0,55,0.00,CLR,,0.00,WeatherDisplay:10.37,2013-09-23 20:19:00,
2013-09-24 06:24:00,63.0,46.5,29.69,NE,41,0.0,0.0,55,0.00,CLR,,0.00,WeatherDisplay:10.37,2013-09-23 20:24:00,
2013-09-24 06:29:00,62.8,46.4,29.68,NE,50,0.0,1.0,55,0.00,CLR,,0.00,WeatherDisplay:10.37,2013-09-23 20:29:00,
2013-09-24 06:34:00,62.8,46.4,29.68,NE,44,0.0,3.0,55,0.00,CLR,,0.00,WeatherDisplay:10.37,2013-09-23 20:34:00,
2013-09-24 06:39:00,62.8,46.4,29.68,ENE,61,0.0,2.0,55,0.00,CLR,,0.00,WeatherDisplay:10.37,2013-09-23 20:39:00,
2013-09-24 06:44:00,62.8,46.8,29.67,ENE,75,1.0,2.0,56,0.00,CLR,,0.00,WeatherDisplay:10.37,2013-09-23 20:44:00,
2013-09-24 06:49:00,63.0,47.0,29.68,East,92,0.0,2.0,56,0.00,CLR,,0.00,WeatherDisplay:10.37,2013-09-23 20:49:00,
2013-09-24 06:54:00,63.1,47.2,29.68,North,359,0.0,0.0,56,0.00,CLR,,0.00,WeatherDisplay:10.37,2013-09-23 20:54:00,
2013-09-24 06:59:00,63.0,47.1,29.68,WSW,253,0.0,0.0,56,0.00,CLR,,0.00,WeatherDisplay:10.37,2013-09-23 20:59:00,
2013-09-24 07:04:00,63.1,47.7,29.69,WSW,246,0.0,0.0,57,0.00,CLR,,0.00,WeatherDisplay:10.37,2013-09-23 21:04:00,
2013-09-24 07:09:00,63.3,47.8,29.69,SW,227,0.0,0.0,57,0.00,CLR,,0.00,WeatherDisplay:10.37,2013-09-23 21:09:00,
2013-09-24 07:14:00,63.3,48.2,29.69,SSW,213,0.0,0.0,58,0.00,CLR,,0.00,WeatherDisplay:10.37,2013-09-23 21:14:00,
2013-09-24 07:19:00,63.3,47.8,29.68,SSW,195,0.0,0.0,57,0.00,CLR,,0.00,WeatherDisplay:10.37,2013-09-23 21:19:00,
2013-09-24 07:24:00,63.5,48.5,29.68,South,174,0.0,1.0,58,0.00,CLR,,0.00,WeatherDisplay:10.37,2013-09-23 21:24:00,
2013-09-24 07:29:00,63.4,48.8,29.68,South,178,0.0,0.0,59,0.00,CLR,,0.00,WeatherDisplay:10.37,2013-09-23 21:29:00,
2013-09-24 07:34:00,63.6,49.0,29.69,SSE,159,0.0,1.0,59,0.00,CLR,,0.00,WeatherDisplay:10.37,2013-09-23 21:34:00,
2013-09-24 07:39:00,63.7,48.2,29.68,ESE,114,1.0,3.0,57,0.00,CLR,,0.00,WeatherDisplay:10.37,2013-09-23 21:39:00,
2013-09-24 07:44:00,63.8,47.3,29.68,NE,44,3.0,5.0,55,0.00,CLR,,0.00,WeatherDisplay:10.37,2013-09-23 21:44:00,
2013-09-24 07:49:00,64.2,46.2,29.68,NE,38,0.0,4.0,52,0.00,CLR,,0.00,WeatherDisplay:10.37,2013-09-23 21:49:00,
2013-09-24 07:54:00,64.8,45.1,29.67,NNE,32,2.0,5.0,49,0.00,CLR,,0.00,WeatherDisplay:10.37,2013-09-23 21:54:00,
2013-09-24 07:59:00,65.2,45.0,29.68,NNE,17,2.0,7.0,48,0.00,CLR,,0.00,WeatherDisplay:10.37,2013-09-23 21:59:00,
2013-09-24 08:04:00,65.6,44.8,29.67,NNE,19,3.0,5.0,47,0.00,CLR,,0.00,WeatherDisplay:10.37,2013-09-23 22:04:00,
2013-09-24 08:09:00,65.8,44.5,29.67,NNE,14,3.0,6.0,46,0.00,CLR,,0.00,WeatherDisplay:10.37,2013-09-23 22:09:00,
2013-09-24 08:14:00,66.0,44.1,29.67,NNE,13,3.0,9.0,45,0.00,CLR,,0.00,WeatherDisplay:10.37,2013-09-23 22:14:00,
2013-09-24 08:19:00,66.4,44.4,29.67,North,11,3.0,9.0,45,0.00,CLR,,0.00,WeatherDisplay:10.37,2013-09-23 22:19:00,
2013-09-24 08:24:00,66.6,44.0,29.67,NNE,15,2.0,6.0,44,0.00,CLR,,0.00,WeatherDisplay:10.37,2013-09-23 22:24:00,
2013-09-24 08:29:00,66.7,44.1,29.67,North,11,3.0,9.0,44,0.00,CLR,,0.00,WeatherDisplay:10.37,2013-09-23 22:29:00,
2013-09-24 08:34:00,66.9,44.3,29.67,NNE,13,3.0,7.0,44,0.00,CLR,,0.00,WeatherDisplay:10.37,2013-09-23 22:34:00,
2013-09-24 08:39:00,67.1,43.8,29.67,NNE,13,3.0,8.0,43,0.00,CLR,,0.00,WeatherDisplay:10.37,2013-09-23 22:39:00,
2013-09-24 08:44:00,67.3,44.6,29.67,North,11,3.0,8.0,44,0.00,CLR,,0.00,WeatherDisplay:10.37,2013-09-23 22:44:00,
2013-09-24 08:49:00,67.3,44.6,29.67,NNE,12,2.0,8.0,44,0.00,CLR,,0.00,WeatherDisplay:10.37,2013-09-23 22:49:00,
2013-09-24 08:54:00,67.3,45.2,29.67,NNE,21,0.0,3.0,45,0.00,CLR,,0.00,WeatherDisplay:10.37,2013-09-23 22:54:00,
2013-09-24 08:59:00,67.3,45.2,29.67,NNE,25,0.0,4.0,45,0.00,CLR,,0.00,WeatherDisplay:10.37,2013-09-23 22:59:00,
2013-09-24 09:04:00,67.3,46.4,29.66,NNE,22,0.0,2.0,47,0.00,CLR,,0.00,WeatherDisplay:10.37,2013-09-23 23:04:00,
2013-09-24 09:09:00,67.1,46.8,29.66,ENE,57,1.0,4.0,48,0.00,CLR,,0.00,WeatherDisplay:10.37,2013-09-23 23:09:00,
2013-09-24 09:14:00,67.1,46.7,29.66,NNE,21,1.0,3.0,48,0.00,CLR,,0.00,WeatherDisplay:10.37,2013-09-23 23:14:00,
2013-09-24 09:19:00,67.1,46.2,29.66,North,349,1.0,3.0,47,0.00,CLR,,0.00,WeatherDisplay:10.37,2013-09-23 23:19:00,
2013-09-24 09:24:00,67.1,46.2,29.66,North,355,2.0,3.0,47,0.00,CLR,,0.00,WeatherDisplay:10.37,2013-09-23 23:24:00,
2013-09-24 09:29:00,67.1,46.2,29.66,North,360,2.0,4.0,47,0.00,CLR,,0.00,WeatherDisplay:10.37,2013-09-23 23:29:00,
2013-09-24 09:34:00,67.2,46.3,29.65,North,5,2.0,4.0,47,0.00,CLR,,0.00,WeatherDisplay:10.37,2013-09-23 23:34:00,
2013-09-24 09:39:00,67.2,46.9,29.65,North,9,1.0,5.0,48,0.00,CLR,,0.00,WeatherDisplay:10.37,2013-09-23 23:39:00,
2013-09-24 09:44:00,67.3,46.4,29.65,North,5,2.0,6.0,47,0.00,CLR,,0.00,WeatherDisplay:10.37,2013-09-23 23:44:00,
2013-09-24 09:49:00,67.6,46.7,29.65,North,6,2.0,6.0,47,0.00,CLR,,0.00,WeatherDisplay:10.37,2013-09-23 23:49:00,
2013-09-24 09:54:00,67.6,46.7,29.65,North,4,2.0,7.0,47,0.00,CLR,,0.00,WeatherDisplay:10.37,2013-09-23 23:54:00,
2013-09-24 09:59:00,67.6,46.1,29.65,North,4,2.0,7.0,46,0.00,CLR,,0.00,WeatherDisplay:10.37,2013-09-23 23:59:00,
2013-09-24 10:04:00,67.7,46.2,29.64,North,1,3.0,6.0,46,0.00,CLR,,0.00,WeatherDisplay:10.37,2013-09-24 00:04:00,
2013-09-24 10:09:00,67.7,46.2,29.64,North,7,1.0,5.0,46,0.00,CLR,,0.00,WeatherDisplay:10.37,2013-09-24 00:09:00,
2013-09-24 10:14:00,67.8,46.3,29.64,North,8,2.0,4.0,46,0.00,CLR,,0.00,WeatherDisplay:10.37,2013-09-24 00:14:00,
2013-09-24 10:19:00,67.8,46.3,29.64,NNE,13,2.0,4.0,46,0.00,CLR,,0.00,WeatherDisplay:10.37,2013-09-24 00:19:00,
2013-09-24 10:24:00,67.8,46.3,29.64,North,8,0.0,3.0,46,0.00,CLR,,0.00,WeatherDisplay:10.37,2013-09-24 00:24:00,
2013-09-24 10:29:00,68.0,46.4,29.64,NNW,347,0.0,2.0,46,0.00,CLR,,0.00,WeatherDisplay:10.37,2013-09-24 00:29:00,
2013-09-24 10:34:00,68.1,46.6,29.63,NNE,18,2.0,3.0,46,0.00,CLR,,0.00,WeatherDisplay:10.37,2013-09-24 00:34:00,
2013-09-24 10:39:00,68.2,46.6,29.63,NNE,17,1.0,4.0,46,0.00,CLR,,0.00,WeatherDisplay:10.37,2013-09-24 00:39:00,
2013-09-24 10:44:00,68.5,46.3,29.62,North,5,1.0,6.0,45,0.00,CLR,,0.00,WeatherDisplay:10.37,2013-09-24 00:44:00,
2013-09-24 10:49:00,68.7,45.9,29.62,North,7,5.0,8.0,44,0.00,CLR,,0.00,WeatherDisplay:10.37,2013-09-24 00:49:00,
2013-09-24 10:54:00,69.1,46.2,29.62,North,8,2.0,7.0,44,0.00,CLR,,0.00,WeatherDisplay:10.37,2013-09-24 00:54:00,
2013-09-24 10:59:00,69.3,46.4,29.62,North,7,2.0,7.0,44,0.00,CLR,,0.00,WeatherDisplay:10.37,2013-09-24 00:59:00,
2013-09-24 11:04:00,69.3,46.4,29.62,NNW,344,1.0,5.0,44,0.00,CLR,,0.00,WeatherDisplay:10.37,2013-09-24 01:04:00,
2013-09-24 11:09:00,69.1,46.9,29.62,NNW,339,0.0,5.0,45,0.00,CLR,,0.00,WeatherDisplay:10.37,2013-09-24 01:09:00,
2013-09-24 11:14:00,69.3,47.6,29.61,North,357,1.0,7.0,46,0.00,CLR,,0.00,WeatherDisplay:10.37,2013-09-24 01:14:00,
2013-09-24 11:19:00,69.4,48.2,29.61,North,352,1.0,6.0,47,0.00,CLR,,0.00,WeatherDisplay:10.37,2013-09-24 01:19:00,
2013-09-24 11:24:00,69.6,48.5,29.61,North,3,2.0,6.0,47,0.00,CLR,,0.00,WeatherDisplay:10.37,2013-09-24 01:24:00,
2013-09-24 11:29:00,70.0,48.2,29.60,North,7,1.0,7.0,46,0.00,CLR,,0.00,WeatherDisplay:10.37,2013-09-24 01:29:00,
2013-09-24 11:34:00,70.2,48.4,29.60,NNW,346,1.0,3.0,46,0.00,CLR,,0.00,WeatherDisplay:10.37,2013-09-24 01:34:00,
2013-09-24 11:39:00,70.3,48.6,29.60,North,353,2.0,5.0,46,0.00,CLR,,0.00,WeatherDisplay:10.37,2013-09-24 01:39:00,
2013-09-24 11:44:00,70.3,49.7,29.60,North,354,0.0,4.0,48,0.00,CLR,,0.00,WeatherDisplay:10.37,2013-09-24 01:44:00,
2013-09-24 11:49:00,70.3,49.1,29.60,NNW,342,1.0,3.0,47,0.00,CLR,,0.00,WeatherDisplay:10.37,2013-09-24 01:49:00,
2013-09-24 11:54:00,70.5,49.3,29.59,North,3,2.0,4.0,47,0.00,CLR,,0.00,WeatherDisplay:10.37,2013-09-24 01:54:00,
2013-09-24 11:59:00,70.8,49.5,29.59,North,6,2.0,4.0,47,0.00,CLR,,0.00,WeatherDisplay:10.37,2013-09-24 01:59:00,
2013-09-24 12:04:00,71.1,49.9,29.59,North,10,2.0,4.0,47,0.00,CLR,,0.00,WeatherDisplay:10.37,2013-09-24 02:04:00,
2013-09-24 12:09:00,71.4,50.1,29.58,North,6,2.0,5.0,47,0.00,CLR,,0.00,WeatherDisplay:10.37,2013-09-24 02:09:00,
2013-09-24 12:14:00,71.8,49.9,29.58,North,10,3.0,6.0,46,0.00,CLR,,0.00,WeatherDisplay:10.37,2013-09-24 02:14:00,
2013-09-24 12:19:00,72.1,49.6,29.57,NNE,16,3.0,7.0,45,0.00,CLR,,0.00,WeatherDisplay:10.37,2013-09-24 02:19:00,
2013-09-24 12:24:00,72.3,49.8,29.57,NNE,12,1.0,6.0,45,0.00,CLR,,0.00,WeatherDisplay:10.37,2013-09-24 02:24:00,
2013-09-24 12:29:00,72.3,49.8,29.57,North,10,5.0,7.0,45,0.00,CLR,,0.00,WeatherDisplay:10.37,2013-09-24 02:29:00,
2013-09-24 12:34:00,72.5,50.5,29.57,North,3,2.0,5.0,46,0.00,CLR,,0.00,WeatherDisplay:10.37,2013-09-24 02:34:00,
2013-09-24 12:39:00,72.7,50.1,29.57,North,2,2.0,5.0,45,0.00,CLR,,0.00,WeatherDisplay:10.37,2013-09-24 02:39:00,
2013-09-24 12:44:00,73.0,49.8,29.56,NNE,17,1.0,5.0,44,0.00,CLR,,0.00,WeatherDisplay:10.37,2013-09-24 02:44:00,
2013-09-24 12:49:00,73.2,50.6,29.56,NNE,27,2.0,4.0,45,0.00,CLR,,0.00,WeatherDisplay:10.37,2013-09-24 02:49:00,
2013-09-24 12:54:00,73.2,51.2,29.56,NE,44,1.0,6.0,46,0.00,CLR,,0.00,WeatherDisplay:10.37,2013-09-24 02:54:00,
2013-09-24 12:59:00,73.3,51.3,29.56,NE,36,1.0,4.0,46,0.00,CLR,,0.00,WeatherDisplay:10.37,2013-09-24 02:59:00,
2013-09-24 13:04:00,73.6,51.5,29.55,ENE,59,0.0,5.0,46,0.00,CLR,,0.00,WeatherDisplay:10.37,2013-09-24 03:04:00,
2013-09-24 13:09:00,73.6,52.1,29.55,ENE,74,2.0,4.0,47,0.00,CLR,,0.00,WeatherDisplay:10.37,2013-09-24 03:09:00,
2013-09-24 13:14:00,73.9,52.4,29.55,East,80,1.0,4.0,47,0.00,CLR,,0.00,WeatherDisplay:10.37,2013-09-24 03:14:00,
2013-09-24 13:19:00,73.9,53.0,29.55,ENE,73,1.0,3.0,48,0.00,CLR,,0.00,WeatherDisplay:10.37,2013-09-24 03:19:00,
2013-09-24 13:24:00,74.4,53.4,29.54,East,87,2.0,6.0,48,0.00,CLR,,0.00,WeatherDisplay:10.37,2013-09-24 03:24:00,
2013-09-24 13:29:00,75.0,54.0,29.54,East,95,3.0,8.0,48,0.00,CLR,,0.00,WeatherDisplay:10.37,2013-09-24 03:29:00,
2013-09-24 13:34:00,75.2,53.6,29.54,East,82,2.0,7.0,47,0.00,CLR,,0.00,WeatherDisplay:10.37,2013-09-24 03:34:00,
2013-09-24 13:39:00,75.6,54.5,29.54,ENE,74,3.0,7.0,48,0.00,CLR,,0.00,WeatherDisplay:10.37,2013-09-24 03:39:00,
2013-09-24 13:44:00,76.2,54.5,29.53,ENE,72,1.0,6.0,47,0.00,CLR,,0.00,WeatherDisplay:10.37,2013-09-24 03:44:00,
2013-09-24 13:49:00,77.2,54.2,29.53,ENE,65,5.0,7.0,45,0.00,CLR,,0.00,WeatherDisplay:10.37,2013-09-24 03:49:00,
2013-09-24 13:54:00,77.9,53.6,29.53,NE,56,3.0,9.0,43,0.00,CLR,,0.00,WeatherDisplay:10.37,2013-09-24 03:54:00,
2013-09-24 13:59:00,78.6,53.6,29.52,NE,36,3.0,6.0,42,0.00,CLR,,0.00,WeatherDisplay:10.37,2013-09-24 03:59:00,
2013-09-24 14:04:00,79.0,53.9,29.53,NE,35,2.0,7.0,42,0.00,CLR,,0.00,WeatherDisplay:10.37,2013-09-24 04:04:00,
2013-09-24 14:09:00,79.0,53.9,29.52,NE,53,1.0,5.0,42,0.00,CLR,,0.00,WeatherDisplay:10.37,2013-09-24 04:09:00,
2013-09-24 14:14:00,79.0,53.9,29.52,NNE,27,3.0,8.0,42,0.00,CLR,,0.00,WeatherDisplay:10.37,2013-09-24 04:14:00,
2013-09-24 14:19:00,80.3,50.9,29.52,NNW,337,2.0,8.0,36,0.00,CLR,,0.00,WeatherDisplay:10.37,2013-09-24 04:19:00,
2013-09-24 14:24:00,81.3,49.5,29.51,NNW,330,7.0,14.0,33,0.00,CLR,,0.00,WeatherDisplay:10.37,2013-09-24 04:24:00,
2013-09-24 14:29:00,82.0,49.3,29.51,NNW,330,3.0,12.0,32,0.00,CLR,,0.00,WeatherDisplay:10.37,2013-09-24 04:29:00,
2013-09-24 14:34:00,82.2,48.6,29.51,NW,319,6.0,11.0,31,0.00,CLR,,0.00,WeatherDisplay:10.37,2013-09-24 04:34:00,
2013-09-24 14:39:00,82.6,48.0,29.51,NW,319,5.0,12.0,30,0.00,CLR,,0.00,WeatherDisplay:10.37,2013-09-24 04:39:00,
2013-09-24 14:44:00,82.8,48.2,29.51,NNW,327,3.0,10.0,30,0.00,CLR,,0.00,WeatherDisplay:10.37,2013-09-24 04:44:00,
2013-09-24 14:49:00,83.1,47.6,29.52,NNW,335,6.0,13.0,29,0.00,CLR,,0.00,WeatherDisplay:10.37,2013-09-24 04:49:00,
2013-09-24 14:54:00,83.3,46.8,29.52,NW,325,6.0,13.0,28,0.00,CLR,,0.00,WeatherDisplay:10.37,2013-09-24 04:54:00,
2013-09-24 14:59:00,83.7,46.1,29.53,NW,319,5.0,11.0,27,0.00,CLR,,0.00,WeatherDisplay:10.37,2013-09-24 04:59:00,
2013-09-24 15:04:00,84.0,46.4,29.53,NW,321,3.0,10.0,27,0.00,CLR,,0.00,WeatherDisplay:10.37,2013-09-24 05:04:00,
2013-09-24 15:09:00,84.0,45.4,29.53,NW,305,5.0,12.0,26,0.00,CLR,,0.00,WeatherDisplay:10.37,2013-09-24 05:09:00,
2013-09-24 15:14:00,84.0,45.4,29.53,NW,309,7.0,9.0,26,0.00,CLR,,0.00,WeatherDisplay:10.37,2013-09-24 05:14:00,
2013-09-24 15:19:00,84.3,44.6,29.53,NW,320,3.0,12.0,25,0.00,CLR,,0.00,WeatherDisplay:10.37,2013-09-24 05:19:00,
2013-09-24 15:24:00,84.4,44.7,29.53,NW,318,5.0,15.0,25,0.00,CLR,,0.00,WeatherDisplay:10.37,2013-09-24 05:24:00,
2013-09-24 15:29:00,84.4,44.7,29.53,NW,320,2.0,6.0,25,0.00,CLR,,0.00,WeatherDisplay:10.37,2013-09-24 05:29:00,
2013-09-24 15:34:00,84.4,44.7,29.53,NW,314,5.0,12.0,25,0.00,CLR,,0.00,WeatherDisplay:10.37,2013-09-24 05:34:00,
2013-09-24 15:39:00,84.6,43.8,29.53,NW,317,5.0,9.0,24,0.00,CLR,,0.00,WeatherDisplay:10.37,2013-09-24 05:39:00,
2013-09-24 15:44:00,84.5,43.7,29.53,NW,314,6.0,10.0,24,0.00,CLR,,0.00,WeatherDisplay:10.37,2013-09-24 05:44:00,
2013-09-24 15:49:00,84.7,42.8,29.53,NW,305,2.0,9.0,23,0.00,CLR,,0.00,WeatherDisplay:10.37,2013-09-24 05:49:00,
2013-09-24 15:54:00,84.7,42.8,29.53,NW,306,6.0,13.0,23,0.00,CLR,,0.00,WeatherDisplay:10.37,2013-09-24 05:54:00,
2013-09-24 15:59:00,84.9,43.0,29.54,NW,307,1.0,3.0,23,0.00,CLR,,0.00,WeatherDisplay:10.37,2013-09-24 05:59:00,
2013-09-24 16:04:00,84.8,42.9,29.54,West,269,5.0,12.0,23,0.00,CLR,,0.00,WeatherDisplay:10.37,2013-09-24 06:04:00,
2013-09-24 16:09:00,84.7,48.0,29.54,SW,234,3.0,8.0,28,0.00,CLR,,0.00,WeatherDisplay:10.37,2013-09-24 06:09:00,
2013-09-24 16:14:00,83.4,51.3,29.54,South,181,5.0,8.0,33,0.00,CLR,,0.00,WeatherDisplay:10.37,2013-09-24 06:14:00,
2013-09-24 16:19:00,82.1,51.7,29.53,South,170,3.0,7.0,35,0.00,CLR,,0.00,WeatherDisplay:10.37,2013-09-24 06:19:00,
2013-09-24 16:24:00,81.3,51.8,29.54,SSE,168,1.0,4.0,36,0.00,CLR,,0.00,WeatherDisplay:10.37,2013-09-24 06:24:00,
2013-09-24 16:29:00,80.9,52.9,29.54,SSE,162,1.0,3.0,38,0.00,CLR,,0.00,WeatherDisplay:10.37,2013-09-24 06:29:00,
2013-09-24 16:34:00,80.6,52.6,29.54,SSE,158,1.0,2.0,38,0.00,CLR,,0.00,WeatherDisplay:10.37,2013-09-24 06:34:00,
2013-09-24 16:39:00,80.4,53.2,29.55,South,174,1.0,4.0,39,0.00,CLR,,0.00,WeatherDisplay:10.37,2013-09-24 06:39:00,
2013-09-24 16:44:00,80.6,47.1,29.55,SSW,207,5.0,10.0,31,0.00,CLR,,0.00,WeatherDisplay:10.37,2013-09-24 06:44:00,
2013-09-24 16:49:00,81.4,44.2,29.54,SW,236,3.0,12.0,27,0.00,CLR,,0.00,WeatherDisplay:10.37,2013-09-24 06:49:00,
2013-09-24 16:54:00,81.8,43.5,29.54,WSW,252,1.0,7.0,26,0.00,CLR,,0.00,WeatherDisplay:10.37,2013-09-24 06:54:00,
2013-09-24 16:59:00,82.0,41.7,29.55,West,275,3.0,9.0,24,0.00,CLR,,0.00,WeatherDisplay:10.37,2013-09-24 06:59:00,
2013-09-24 17:04:00,82.2,40.7,29.55,West,264,5.0,14.0,23,0.00,CLR,,0.00,WeatherDisplay:10.37,2013-09-24 07:04:00,
2013-09-24 17:09:00,82.2,40.7,29.55,West,260,5.0,9.0,23,0.00,CLR,,0.00,WeatherDisplay:10.37,2013-09-24 07:09:00,
2013-09-24 17:14:00,82.2,40.7,29.55,West,268,2.0,12.0,23,0.00,CLR,,0.00,WeatherDisplay:10.37,2013-09-24 07:14:00,
2013-09-24 17:19:00,82.0,40.6,29.55,West,269,3.0,13.0,23,0.00,CLR,,0.00,WeatherDisplay:10.37,2013-09-24 07:19:00,
2013-09-24 17:24:00,81.9,40.4,29.56,West,265,2.0,8.0,23,0.00,CLR,,0.00,WeatherDisplay:10.37,2013-09-24 07:24:00,
2013-09-24 17:29:00,81.7,40.3,29.56,West,261,3.0,7.0,23,0.00,CLR,,0.00,WeatherDisplay:10.37,2013-09-24 07:29:00,
2013-09-24 17:34:00,81.5,40.1,29.56,WSW,243,2.0,7.0,23,0.00,CLR,,0.00,WeatherDisplay:10.37,2013-09-24 07:34:00,
2013-09-24 17:39:00,81.2,39.9,29.57,SW,232,2.0,5.0,23,0.00,CLR,,0.00,WeatherDisplay:10.37,2013-09-24 07:39:00,
2013-09-24 17:44:00,81.1,39.8,29.57,West,259,1.0,4.0,23,0.00,CLR,,0.00,WeatherDisplay:10.37,2013-09-24 07:44:00,
2013-09-24 17:49:00,80.8,40.6,29.57,WSW,253,3.0,12.0,24,0.00,CLR,,0.00,WeatherDisplay:10.37,2013-09-24 07:49:00,
2013-09-24 17:54:00,80.7,39.4,29.58,SW,236,2.0,12.0,23,0.00,CLR,,0.00,WeatherDisplay:10.37,2013-09-24 07:54:00,
2013-09-24 17:59:00,80.2,46.0,29.58,SSW,209,3.0,6.0,30,0.00,CLR,,0.00,WeatherDisplay:10.37,2013-09-24 07:59:00,
2013-09-24 18:04:00,79.1,49.9,29.59,South,188,3.0,6.0,36,0.00,CLR,,0.00,WeatherDisplay:10.37,2013-09-24 08:04:00,
2013-09-24 18:09:00,78.3,50.6,29.59,South,173,3.0,6.0,38,0.00,CLR,,0.00,WeatherDisplay:10.37,2013-09-24 08:09:00,
2013-09-24 18:14:00,77.5,51.3,29.59,South,186,0.0,5.0,40,0.00,CLR,,0.00,WeatherDisplay:10.37,2013-09-24 08:14:00,
2013-09-24 18:19:00,76.9,52.1,29.60,SSW,195,1.0,2.0,42,0.00,CLR,,0.00,WeatherDisplay:10.37,2013-09-24 08:19:00,
2013-09-24 18:24:00,76.6,52.4,29.60,South,188,0.0,2.0,43,0.00,CLR,,0.00,WeatherDisplay:10.37,2013-09-24 08:24:00,
2013-09-24 18:29:00,76.0,52.5,29.60,SSW,193,0.0,1.0,44,0.00,CLR,,0.00,WeatherDisplay:10.37,2013-09-24 08:29:00,
2013-09-24 18:34:00,75.7,52.9,29.61,WSW,255,0.0,2.0,45,0.00,CLR,,0.00,WeatherDisplay:10.37,2013-09-24 08:34:00,
2013-09-24 18:39:00,75.4,53.2,29.61,NNW,348,0.0,2.0,46,0.00,CLR,,0.00,WeatherDisplay:10.37,2013-09-24 08:39:00,
2013-09-24 18:44:00,75.0,52.8,29.61,NW,318,2.0,7.0,46,0.00,CLR,,0.00,WeatherDisplay:10.37,2013-09-24 08:44:00,
2013-09-24 18:49:00,75.0,49.7,29.62,WSW,239,2.0,5.0,41,0.00,CLR,,0.00,WeatherDisplay:10.37,2013-09-24 08:49:00,
2013-09-24 18:54:00,75.4,49.4,29.62,SW,216,1.0,3.0,40,0.00,CLR,,0.00,WeatherDisplay:10.37,2013-09-24 08:54:00,
2013-09-24 18:59:00,75.6,45.2,29.63,WSW,244,2.0,5.0,34,0.00,CLR,,0.00,WeatherDisplay:10.37,2013-09-24 08:59:00,
2013-09-24 19:04:00,76.0,44.0,29.63,WSW,245,1.0,8.0,32,0.00,CLR,,0.00,WeatherDisplay:10.37,2013-09-24 09:04:00,
2013-09-24 19:09:00,76.5,43.6,29.63,SW,235,2.0,4.0,31,0.00,CLR,,0.00,WeatherDisplay:10.37,2013-09-24 09:09:00,
2013-09-24 19:14:00,76.6,44.6,29.64,WSW,242,1.0,8.0,32,0.00,CLR,,0.00,WeatherDisplay:10.37,2013-09-24 09:14:00,
2013-09-24 19:19:00,76.6,43.7,29.64,WSW,248,1.0,3.0,31,0.00,CLR,,0.00,WeatherDisplay:10.37,2013-09-24 09:19:00,
2013-09-24 19:24:00,76.6,42.9,29.64,West,271,2.0,7.0,30,0.00,CLR,,0.00,WeatherDisplay:10.37,2013-09-24 09:24:00,
2013-09-24 19:29:00,76.8,42.1,29.65,WSW,240,2.0,13.0,29,0.00,CLR,,0.00,WeatherDisplay:10.37,2013-09-24 09:29:00,
2013-09-24 19:34:00,76.8,42.1,29.65,WSW,240,3.0,8.0,29,0.00,CLR,,0.00,WeatherDisplay:10.37,2013-09-24 09:34:00,
2013-09-24 19:39:00,76.9,41.3,29.65,WSW,254,3.0,5.0,28,0.00,CLR,,0.00,WeatherDisplay:10.37,2013-09-24 09:39:00,
2013-09-24 19:44:00,76.9,41.3,29.65,WSW,258,3.0,7.0,28,0.00,CLR,,0.00,WeatherDisplay:10.37,2013-09-24 09:44:00,
2013-09-24 19:49:00,76.8,41.2,29.66,WSW,252,2.0,8.0,28,0.00,CLR,,0.00,WeatherDisplay:10.37,2013-09-24 09:49:00,
2013-09-24 19:54:00,77.0,41.4,29.66,West,262,2.0,10.0,28,0.00,CLR,,0.00,WeatherDisplay:10.37,2013-09-24 09:54:00,
2013-09-24 19:59:00,76.8,41.2,29.66,WSW,244,3.0,8.0,28,0.00,CLR,,0.00,WeatherDisplay:10.37,2013-09-24 09:59:00,
2013-09-24 20:04:00,76.8,41.2,29.66,WSW,244,3.0,11.0,28,0.00,CLR,,0.00,WeatherDisplay:10.37,2013-09-24 10:04:00,
2013-09-24 20:09:00,76.8,41.2,29.66,WSW,249,1.0,9.0,28,0.00,CLR,,0.00,WeatherDisplay:10.37,2013-09-24 10:09:00,
2013-09-24 20:14:00,76.8,40.3,29.67,WSW,253,6.0,12.0,27,0.00,CLR,,0.00,WeatherDisplay:10.37,2013-09-24 10:14:00,
2013-09-24 20:19:00,77.2,40.6,29.67,West,269,3.0,12.0,27,0.00,CLR,,0.00,WeatherDisplay:10.37,2013-09-24 10:19:00,
2013-09-24 20:24:00,77.2,40.6,29.67,West,272,2.0,11.0,27,0.00,CLR,,0.00,WeatherDisplay:10.37,2013-09-24 10:24:00,
2013-09-24 20:29:00,77.1,40.5,29.67,West,267,1.0,12.0,27,0.00,CLR,,0.00,WeatherDisplay:10.37,2013-09-24 10:29:00,
2013-09-24 20:34:00,76.8,40.3,29.67,West,263,3.0,12.0,27,0.00,CLR,,0.00,WeatherDisplay:10.37,2013-09-24 10:34:00,
2013-09-24 20:39:00,76.8,40.2,29.67,West,268,3.0,9.0,27,0.00,CLR,,0.00,WeatherDisplay:10.37,2013-09-24 10:39:00,
2013-09-24 20:44:00,76.6,40.1,29.67,West,268,6.0,9.0,27,0.00,CLR,,0.00,WeatherDisplay:10.37,2013-09-24 10:44:00,
2013-09-24 20:49:00,76.6,40.1,29.68,West,261,2.0,8.0,27,0.00,CLR,,0.00,WeatherDisplay:10.37,2013-09-24 10:49:00,
2013-09-24 20:54:00,76.4,39.9,29.68,West,259,3.0,7.0,27,0.00,CLR,,0.00,WeatherDisplay:10.37,2013-09-24 10:54:00,
2013-09-24 20:59:00,76.3,39.8,29.68,West,268,6.0,10.0,27,0.00,CLR,,0.00,WeatherDisplay:10.37,2013-09-24 10:59:00,
2013-09-24 21:04:00,76.3,40.8,29.68,West,264,5.0,12.0,28,0.00,CLR,,0.00,WeatherDisplay:10.37,2013-09-24 11:04:00,
2013-09-24 21:09:00,76.3,39.8,29.69,West,260,5.0,15.0,27,0.00,CLR,,0.00,WeatherDisplay:10.37,2013-09-24 11:09:00,
2013-09-24 21:14:00,76.1,39.7,29.69,West,259,6.0,13.0,27,0.00,CLR,,0.00,WeatherDisplay:10.37,2013-09-24 11:14:00,
2013-09-24 21:19:00,75.9,40.5,29.69,West,268,6.0,14.0,28,0.00,CLR,,0.00,WeatherDisplay:10.37,2013-09-24 11:19:00,
2013-09-24 21:24:00,75.9,39.5,29.69,West,277,8.0,14.0,27,0.00,CLR,,0.00,WeatherDisplay:10.37,2013-09-24 11:24:00,
2013-09-24 21:29:00,75.9,40.5,29.69,WNW,287,8.0,13.0,28,0.00,CLR,,0.00,WeatherDisplay:10.37,2013-09-24 11:29:00,
2013-09-24 21:34:00,75.8,40.4,29.69,West,279,5.0,12.0,28,0.00,CLR,,0.00,WeatherDisplay:10.37,2013-09-24 11:34:00,
2013-09-24 21:39:00,75.7,40.3,29.69,West,279,5.0,13.0,28,0.00,CLR,,0.00,WeatherDisplay:10.37,2013-09-24 11:39:00,
2013-09-24 21:44:00,75.6,40.2,29.70,WNW,285,6.0,13.0,28,0.00,CLR,,0.00,WeatherDisplay:10.37,2013-09-24 11:44:00,
2013-09-24 21:49:00,75.4,40.0,29.70,West,262,7.0,12.0,28,0.00,CLR,,0.00,WeatherDisplay:10.37,2013-09-24 11:49:00,
2013-09-24 21:54:00,75.4,40.9,29.71,West,263,8.0,17.0,29,0.00,CLR,,0.00,WeatherDisplay:10.37,2013-09-24 11:54:00,
2013-09-24 21:59:00,75.4,40.9,29.71,West,261,5.0,17.0,29,0.00,CLR,,0.00,WeatherDisplay:10.37,2013-09-24 11:59:00,
2013-09-24 22:04:00,75.1,40.7,29.72,SW,233,8.0,16.0,29,0.00,CLR,,0.00,WeatherDisplay:10.37,2013-09-24 12:04:00,
2013-09-24 22:09:00,75.0,40.6,29.72,SW,226,9.0,16.0,29,0.00,CLR,,0.00,WeatherDisplay:10.37,2013-09-24 12:09:00,
2013-09-24 22:14:00,75.0,41.4,29.73,SW,232,8.0,15.0,30,0.00,CLR,,0.00,WeatherDisplay:10.37,2013-09-24 12:14:00,
2013-09-24 22:19:00,74.8,41.3,29.73,SW,236,5.0,15.0,30,0.00,CLR,,0.00,WeatherDisplay:10.37,2013-09-24 12:19:00,
2013-09-24 22:29:00,74.5,41.0,29.73,West,259,5.0,9.0,30,0.00,CLR,,0.00,WeatherDisplay:10.37,2013-09-24 12:29:00,
2013-09-24 22:34:00,74.3,41.7,29.73,WSW,237,5.0,12.0,31,0.00,CLR,,0.00,WeatherDisplay:10.37,2013-09-24 12:34:00,
2013-09-24 22:39:00,74.1,41.5,29.74,SW,225,7.0,14.0,31,0.00,CLR,,0.00,WeatherDisplay:10.37,2013-09-24 12:39:00,
2013-09-24 22:44:00,74.0,42.2,29.74,SW,233,6.0,15.0,32,0.00,CLR,,0.00,WeatherDisplay:10.37,2013-09-24 12:44:00,
2013-09-24 22:49:00,73.9,42.2,29.74,SW,235,6.0,17.0,32,0.00,CLR,,0.00,WeatherDisplay:10.37,2013-09-24 12:49:00,
2013-09-24 22:54:00,73.9,42.2,29.74,WSW,243,5.0,10.0,32,0.00,CLR,,0.00,WeatherDisplay:10.37,2013-09-24 12:54:00,
2013-09-24 22:59:00,73.7,42.0,29.75,WSW,249,3.0,7.0,32,0.00,CLR,,0.00,WeatherDisplay:10.37,2013-09-24 12:59:00,
2013-09-24 23:04:00,73.6,42.7,29.74,West,270,2.0,7.0,33,0.00,CLR,,0.00,WeatherDisplay:10.37,2013-09-24 13:04:00,
2013-09-24 23:09:00,73.4,42.6,29.75,West,266,3.0,8.0,33,0.00,CLR,,0.00,WeatherDisplay:10.37,2013-09-24 13:09:00,
2013-09-24 23:14:00,73.2,42.4,29.75,West,264,1.0,5.0,33,0.00,CLR,,0.00,WeatherDisplay:10.37,2013-09-24 13:14:00,
2013-09-24 23:19:00,73.2,43.2,29.75,West,281,0.0,3.0,34,0.00,CLR,,0.00,WeatherDisplay:10.37,2013-09-24 13:19:00,
2013-09-24 23:24:00,73.2,43.2,29.75,WNW,286,1.0,3.0,34,0.00,CLR,,0.00,WeatherDisplay:10.37,2013-09-24 13:24:00,
2013-09-24 23:29:00,73.0,43.0,29.75,WNW,285,0.0,2.0,34,0.00,CLR,,0.00,WeatherDisplay:10.37,2013-09-24 13:29:00,
2013-09-24 23:34:00,72.7,43.4,29.75,NW,306,0.0,2.0,35,0.00,CLR,,0.00,WeatherDisplay:10.37,2013-09-24 13:34:00,
2013-09-24 23:39:00,72.5,43.3,29.75,NNW,348,1.0,2.0,35,0.00,CLR,,0.00,WeatherDisplay:10.37,2013-09-24 13:39:00,
2013-09-24 23:44:00,72.3,43.8,29.75,NNW,327,0.0,2.0,36,0.00,CLR,,0.00,WeatherDisplay:10.37,2013-09-24 13:44:00,
2013-09-24 23:49:00,72.0,43.6,29.75,WNW,302,0.0,2.0,36,0.00,CLR,,0.00,WeatherDisplay:10.37,2013-09-24 13:49:00,
2013-09-24 23:54:00,71.8,43.4,29.75,NW,308,1.0,4.0,36,0.00,CLR,,0.00,WeatherDisplay:10.37,2013-09-24 13:54:00,
2013-09-24 23:59:00,71.8,44.1,29.75,WNW,303,0.0,2.0,37,0.00,CLR,,0.00,WeatherDisplay:10.37,2013-09-24 13:59:00,